sensor_id;sensor_type;location;lat;lon;timestamp;pressure;altitude;pressure_sealevel;temperature;humidity
77017;BME280;65949;53.132;17.930;2024-02-15T00:02:23;101421.43;;;5.79;100.00
77017;BME280;65949;53.132;17.930;2024-02-15T00:04:49;101424.11;;;5.80;100.00
77017;BME280;65949;53.132;17.930;2024-02-15T00:07:16;101424.35;;;5.81;100.00
77017;BME280;65949;53.132;17.930;2024-02-15T00:09:43;101423.69;;;5.82;100.00
77017;BME280;65949;53.132;17.930;2024-02-15T00:12:09;101421.02;;;5.83;100.00
77017;BME280;65949;53.132;17.930;2024-02-15T00:14:36;101420.06;;;5.85;100.00
77017;BME280;65949;53.132;17.930;2024-02-15T00:17:04;101416.95;;;5.86;100.00
77017;BME280;65949;53.132;17.930;2024-02-15T00:19:31;101415.67;;;5.87;100.00
77017;BME280;65949;53.132;17.930;2024-02-15T00:21:58;101416.64;;;5.87;100.00
77017;BME280;65949;53.132;17.930;2024-02-15T00:24:26;101415.04;;;5.89;100.00
77017;BME280;65949;53.132;17.930;2024-02-15T00:26:52;101412.80;;;5.90;100.00
77017;BME280;65949;53.132;17.930;2024-02-15T00:29:20;101410.73;;;5.91;100.00
77017;BME280;65949;53.132;17.930;2024-02-15T00:31:47;101412.80;;;5.93;100.00
77017;BME280;65949;53.132;17.930;2024-02-15T00:34:13;101413.76;;;5.93;100.00
77017;BME280;65949;53.132;17.930;2024-02-15T00:36:42;101409.37;;;5.95;100.00
77017;BME280;65949;53.132;17.930;2024-02-15T00:39:11;101411.76;;;5.95;100.00
77017;BME280;65949;53.132;17.930;2024-02-15T00:41:38;101410.92;;;5.96;100.00
77017;BME280;65949;53.132;17.930;2024-02-15T00:44:11;101413.63;;;5.97;100.00
77017;BME280;65949;53.132;17.930;2024-02-15T00:46:38;101414.23;;;5.97;100.00
77017;BME280;65949;53.132;17.930;2024-02-15T00:49:05;101413.87;;;5.99;100.00
77017;BME280;65949;53.132;17.930;2024-02-15T00:51:33;101416.17;;;5.99;100.00
77017;BME280;65949;53.132;17.930;2024-02-15T00:54:02;101415.84;;;6.01;100.00
77017;BME280;65949;53.132;17.930;2024-02-15T00:56:29;101417.55;;;6.02;100.00
77017;BME280;65949;53.132;17.930;2024-02-15T00:58:59;101416.70;;;6.03;100.00
77017;BME280;65949;53.132;17.930;2024-02-15T01:01:27;101415.76;;;6.04;100.00
77017;BME280;65949;53.132;17.930;2024-02-15T01:03:54;101414.84;;;6.06;100.00
77017;BME280;65949;53.132;17.930;2024-02-15T01:06:20;101414.39;;;6.06;100.00
77017;BME280;65949;53.132;17.930;2024-02-15T01:08:48;101414.39;;;6.08;100.00
77017;BME280;65949;53.132;17.930;2024-02-15T01:11:15;101413.23;;;6.08;100.00
77017;BME280;65949;53.132;17.930;2024-02-15T01:13:42;101412.76;;;6.09;100.00
77017;BME280;65949;53.132;17.930;2024-02-15T01:16:10;101414.13;;;6.10;100.00
77017;BME280;65949;53.132;17.930;2024-02-15T01:18:37;101410.00;;;6.12;100.00
77017;BME280;65949;53.132;17.930;2024-02-15T01:21:04;101409.35;;;6.13;100.00
77017;BME280;65949;53.132;17.930;2024-02-15T01:23:31;101410.42;;;6.14;100.00
77017;BME280;65949;53.132;17.930;2024-02-15T01:25:57;101408.23;;;6.15;100.00
77017;BME280;65949;53.132;17.930;2024-02-15T01:28:25;101404.05;;;6.16;100.00
77017;BME280;65949;53.132;17.930;2024-02-15T01:30:52;101407.23;;;6.17;100.00
77017;BME280;65949;53.132;17.930;2024-02-15T01:33:21;101404.27;;;6.18;100.00
77017;BME280;65949;53.132;17.930;2024-02-15T01:35:47;101405.35;;;6.20;100.00
77017;BME280;65949;53.132;17.930;2024-02-15T01:38:15;101405.55;;;6.20;100.00
77017;BME280;65949;53.132;17.930;2024-02-15T01:40:41;101402.29;;;6.22;100.00
77017;BME280;65949;53.132;17.930;2024-02-15T01:43:09;101398.45;;;6.23;100.00
77017;BME280;65949;53.132;17.930;2024-02-15T01:45:35;101395.30;;;6.24;100.00
77017;BME280;65949;53.132;17.930;2024-02-15T01:48:02;101395.73;;;6.24;100.00
77017;BME280;65949;53.132;17.930;2024-02-15T01:50:31;101393.54;;;6.25;100.00
77017;BME280;65949;53.132;17.930;2024-02-15T01:53:01;101390.00;;;6.26;100.00
77017;BME280;65949;53.132;17.930;2024-02-15T01:55:28;101392.66;;;6.27;100.00
77017;BME280;65949;53.132;17.930;2024-02-15T01:57:55;101389.38;;;6.28;100.00
77017;BME280;65949;53.132;17.930;2024-02-15T02:00:22;101389.62;;;6.28;100.00
77017;BME280;65949;53.132;17.930;2024-02-15T02:02:51;101389.63;;;6.30;100.00
77017;BME280;65949;53.132;17.930;2024-02-15T02:05:19;101389.21;;;6.30;100.00
77017;BME280;65949;53.132;17.930;2024-02-15T02:07:46;101387.23;;;6.31;100.00
77017;BME280;65949;53.132;17.930;2024-02-15T02:10:13;101390.21;;;6.32;100.00
77017;BME280;65949;53.132;17.930;2024-02-15T02:12:41;101391.39;;;6.33;100.00
77017;BME280;65949;53.132;17.930;2024-02-15T02:15:09;101386.20;;;6.34;100.00
77017;BME280;65949;53.132;17.930;2024-02-15T02:17:37;101385.05;;;6.35;100.00
77017;BME280;65949;53.132;17.930;2024-02-15T02:20:07;101382.61;;;6.35;100.00
77017;BME280;65949;53.132;17.930;2024-02-15T02:22:35;101381.23;;;6.37;100.00
77017;BME280;65949;53.132;17.930;2024-02-15T02:25:07;101383.80;;;6.38;100.00
77017;BME280;65949;53.132;17.930;2024-02-15T02:27:35;101381.96;;;6.39;100.00
77017;BME280;65949;53.132;17.930;2024-02-15T02:30:13;101379.80;;;6.40;100.00
77017;BME280;65949;53.132;17.930;2024-02-15T02:32:48;101380.24;;;6.40;100.00
77017;BME280;65949;53.132;17.930;2024-02-15T02:35:14;101373.47;;;6.40;100.00
77017;BME280;65949;53.132;17.930;2024-02-15T02:37:42;101375.17;;;6.42;100.00
77017;BME280;65949;53.132;17.930;2024-02-15T02:40:09;101374.27;;;6.42;100.00
77017;BME280;65949;53.132;17.930;2024-02-15T02:42:52;101373.42;;;6.43;100.00
77017;BME280;65949;53.132;17.930;2024-02-15T02:45:20;101372.91;;;6.43;100.00
77017;BME280;65949;53.132;17.930;2024-02-15T02:47:49;101375.20;;;6.44;100.00
77017;BME280;65949;53.132;17.930;2024-02-15T02:50:16;101373.89;;;6.45;100.00
77017;BME280;65949;53.132;17.930;2024-02-15T02:52:42;101371.52;;;6.46;100.00
77017;BME280;65949;53.132;17.930;2024-02-15T02:55:10;101371.93;;;6.47;100.00
77017;BME280;65949;53.132;17.930;2024-02-15T02:57:38;101374.17;;;6.47;100.00
77017;BME280;65949;53.132;17.930;2024-02-15T03:00:07;101374.16;;;6.48;100.00
77017;BME280;65949;53.132;17.930;2024-02-15T03:02:35;101376.42;;;6.49;100.00
77017;BME280;65949;53.132;17.930;2024-02-15T03:05:03;101377.56;;;6.49;100.00
77017;BME280;65949;53.132;17.930;2024-02-15T03:07:34;101375.09;;;6.50;100.00
77017;BME280;65949;53.132;17.930;2024-02-15T03:10:02;101370.19;;;6.50;100.00
77017;BME280;65949;53.132;17.930;2024-02-15T03:12:31;101372.75;;;6.51;100.00
77017;BME280;65949;53.132;17.930;2024-02-15T03:14:57;101367.99;;;6.51;100.00
77017;BME280;65949;53.132;17.930;2024-02-15T03:17:24;101370.50;;;6.52;100.00
77017;BME280;65949;53.132;17.930;2024-02-15T03:19:50;101374.52;;;6.53;100.00
77017;BME280;65949;53.132;17.930;2024-02-15T03:22:17;101369.27;;;6.53;100.00
77017;BME280;65949;53.132;17.930;2024-02-15T03:24:44;101375.20;;;6.54;100.00
77017;BME280;65949;53.132;17.930;2024-02-15T03:27:10;101377.18;;;6.55;100.00
77017;BME280;65949;53.132;17.930;2024-02-15T03:29:37;101378.86;;;6.55;100.00
77017;BME280;65949;53.132;17.930;2024-02-15T03:32:04;101379.05;;;6.56;100.00
77017;BME280;65949;53.132;17.930;2024-02-15T03:34:31;101375.45;;;6.57;100.00
77017;BME280;65949;53.132;17.930;2024-02-15T03:36:58;101379.01;;;6.58;100.00
77017;BME280;65949;53.132;17.930;2024-02-15T03:39:25;101381.66;;;6.59;100.00
77017;BME280;65949;53.132;17.930;2024-02-15T03:41:52;101377.98;;;6.59;100.00
77017;BME280;65949;53.132;17.930;2024-02-15T03:44:20;101382.56;;;6.59;100.00
77017;BME280;65949;53.132;17.930;2024-02-15T03:46:46;101378.91;;;6.60;100.00
77017;BME280;65949;53.132;17.930;2024-02-15T03:49:20;101377.15;;;6.60;100.00
77017;BME280;65949;53.132;17.930;2024-02-15T03:51:48;101371.21;;;6.61;100.00
77017;BME280;65949;53.132;17.930;2024-02-15T03:54:15;101369.42;;;6.61;100.00
77017;BME280;65949;53.132;17.930;2024-02-15T03:56:49;101367.74;;;6.61;100.00
77017;BME280;65949;53.132;17.930;2024-02-15T03:59:19;101370.73;;;6.62;100.00
77017;BME280;65949;53.132;17.930;2024-02-15T04:01:52;101370.40;;;6.61;100.00
77017;BME280;65949;53.132;17.930;2024-02-15T04:04:20;101371.52;;;6.62;100.00
77017;BME280;65949;53.132;17.930;2024-02-15T04:06:50;101377.86;;;6.62;100.00
77017;BME280;65949;53.132;17.930;2024-02-15T04:09:18;101379.58;;;6.62;100.00
77017;BME280;65949;53.132;17.930;2024-02-15T04:11:46;101382.88;;;6.64;100.00
77017;BME280;65949;53.132;17.930;2024-02-15T04:14:16;101378.01;;;6.64;100.00
77017;BME280;65949;53.132;17.930;2024-02-15T04:16:45;101379.91;;;6.65;100.00
77017;BME280;65949;53.132;17.930;2024-02-15T04:19:11;101382.26;;;6.65;100.00
77017;BME280;65949;53.132;17.930;2024-02-15T04:21:38;101381.80;;;6.66;100.00
77017;BME280;65949;53.132;17.930;2024-02-15T04:24:06;101385.64;;;6.67;100.00
77017;BME280;65949;53.132;17.930;2024-02-15T04:26:33;101383.24;;;6.67;100.00
77017;BME280;65949;53.132;17.930;2024-02-15T04:28:59;101384.35;;;6.68;100.00
77017;BME280;65949;53.132;17.930;2024-02-15T04:31:26;101385.98;;;6.69;100.00
77017;BME280;65949;53.132;17.930;2024-02-15T04:33:53;101386.63;;;6.69;100.00
77017;BME280;65949;53.132;17.930;2024-02-15T04:36:21;101384.67;;;6.69;100.00
77017;BME280;65949;53.132;17.930;2024-02-15T04:38:52;101389.48;;;6.69;100.00
77017;BME280;65949;53.132;17.930;2024-02-15T04:41:19;101385.78;;;6.70;100.00
77017;BME280;65949;53.132;17.930;2024-02-15T04:43:51;101386.25;;;6.70;100.00
77017;BME280;65949;53.132;17.930;2024-02-15T04:46:18;101387.89;;;6.70;100.00
77017;BME280;65949;53.132;17.930;2024-02-15T04:48:49;101386.18;;;6.70;100.00
77017;BME280;65949;53.132;17.930;2024-02-15T04:51:16;101381.92;;;6.69;100.00
77017;BME280;65949;53.132;17.930;2024-02-15T04:53:43;101381.45;;;6.69;100.00
77017;BME280;65949;53.132;17.930;2024-02-15T04:56:12;101385.42;;;6.69;100.00
77017;BME280;65949;53.132;17.930;2024-02-15T04:58:43;101386.11;;;6.69;100.00
77017;BME280;65949;53.132;17.930;2024-02-15T05:01:17;101386.05;;;6.69;100.00
77017;BME280;65949;53.132;17.930;2024-02-15T05:03:44;101388.59;;;6.69;100.00
77017;BME280;65949;53.132;17.930;2024-02-15T05:06:11;101390.06;;;6.68;100.00
77017;BME280;65949;53.132;17.930;2024-02-15T05:08:41;101392.13;;;6.68;100.00
77017;BME280;65949;53.132;17.930;2024-02-15T05:11:11;101395.39;;;6.68;100.00
77017;BME280;65949;53.132;17.930;2024-02-15T05:13:44;101388.42;;;6.68;100.00
77017;BME280;65949;53.132;17.930;2024-02-15T05:16:12;101385.23;;;6.69;100.00
77017;BME280;65949;53.132;17.930;2024-02-15T05:18:39;101381.13;;;6.69;100.00
77017;BME280;65949;53.132;17.930;2024-02-15T05:21:08;101381.13;;;6.69;100.00
77017;BME280;65949;53.132;17.930;2024-02-15T05:23:36;101382.08;;;6.69;100.00
77017;BME280;65949;53.132;17.930;2024-02-15T05:26:04;101384.66;;;6.69;100.00
77017;BME280;65949;53.132;17.930;2024-02-15T05:28:31;101382.70;;;6.70;100.00
77017;BME280;65949;53.132;17.930;2024-02-15T05:31:11;101383.10;;;6.71;100.00
77017;BME280;65949;53.132;17.930;2024-02-15T05:33:38;101386.89;;;6.71;100.00
77017;BME280;65949;53.132;17.930;2024-02-15T05:36:11;101387.65;;;6.70;100.00
77017;BME280;65949;53.132;17.930;2024-02-15T05:38:38;101384.39;;;6.70;100.00
77017;BME280;65949;53.132;17.930;2024-02-15T05:41:05;101387.29;;;6.70;100.00
77017;BME280;65949;53.132;17.930;2024-02-15T05:43:34;101386.39;;;6.70;100.00
77017;BME280;65949;53.132;17.930;2024-02-15T05:46:03;101388.26;;;6.70;100.00
77017;BME280;65949;53.132;17.930;2024-02-15T05:48:30;101388.52;;;6.70;100.00
77017;BME280;65949;53.132;17.930;2024-02-15T05:50:57;101388.41;;;6.70;100.00
77017;BME280;65949;53.132;17.930;2024-02-15T05:53:27;101387.73;;;6.70;100.00
77017;BME280;65949;53.132;17.930;2024-02-15T05:55:54;101388.96;;;6.69;100.00
77017;BME280;65949;53.132;17.930;2024-02-15T05:58:21;101394.04;;;6.69;100.00
77017;BME280;65949;53.132;17.930;2024-02-15T06:00:48;101393.48;;;6.69;100.00
77017;BME280;65949;53.132;17.930;2024-02-15T06:03:19;101395.15;;;6.70;100.00
77017;BME280;65949;53.132;17.930;2024-02-15T06:05:49;101397.45;;;6.70;100.00
77017;BME280;65949;53.132;17.930;2024-02-15T06:08:16;101398.00;;;6.72;100.00
77017;BME280;65949;53.132;17.930;2024-02-15T06:10:44;101402.15;;;6.73;100.00
77017;BME280;65949;53.132;17.930;2024-02-15T06:13:11;101405.73;;;6.74;100.00
77017;BME280;65949;53.132;17.930;2024-02-15T06:15:37;101403.57;;;6.75;100.00
77017;BME280;65949;53.132;17.930;2024-02-15T06:18:04;101405.07;;;6.75;100.00
77017;BME280;65949;53.132;17.930;2024-02-15T06:20:35;101401.16;;;6.76;100.00
77017;BME280;65949;53.132;17.930;2024-02-15T06:23:02;101402.52;;;6.78;100.00
77017;BME280;65949;53.132;17.930;2024-02-15T06:25:37;101404.63;;;6.79;100.00
77017;BME280;65949;53.132;17.930;2024-02-15T06:28:04;101409.02;;;6.80;100.00
77017;BME280;65949;53.132;17.930;2024-02-15T06:30:40;101417.67;;;6.83;100.00
77017;BME280;65949;53.132;17.930;2024-02-15T06:33:25;101416.02;;;6.85;100.00
77017;BME280;65949;53.132;17.930;2024-02-15T06:36:10;101416.14;;;6.85;100.00
77017;BME280;65949;53.132;17.930;2024-02-15T06:38:56;101418.88;;;6.87;100.00
77017;BME280;65949;53.132;17.930;2024-02-15T06:41:41;101423.38;;;6.88;100.00
77017;BME280;65949;53.132;17.930;2024-02-15T06:44:08;101423.41;;;6.89;100.00
77017;BME280;65949;53.132;17.930;2024-02-15T06:46:34;101423.45;;;6.90;100.00
77017;BME280;65949;53.132;17.930;2024-02-15T06:49:01;101430.33;;;6.91;100.00
77017;BME280;65949;53.132;17.930;2024-02-15T06:51:29;101430.65;;;6.92;100.00
77017;BME280;65949;53.132;17.930;2024-02-15T06:53:55;101435.59;;;6.92;100.00
77017;BME280;65949;53.132;17.930;2024-02-15T06:56:22;101443.16;;;6.93;100.00
77017;BME280;65949;53.132;17.930;2024-02-15T06:58:49;101444.50;;;6.94;100.00
77017;BME280;65949;53.132;17.930;2024-02-15T07:01:16;101445.74;;;6.95;100.00
77017;BME280;65949;53.132;17.930;2024-02-15T07:03:43;101450.39;;;6.96;100.00
77017;BME280;65949;53.132;17.930;2024-02-15T07:06:14;101451.86;;;6.97;100.00
77017;BME280;65949;53.132;17.930;2024-02-15T07:08:41;101451.38;;;6.98;100.00
77017;BME280;65949;53.132;17.930;2024-02-15T07:11:08;101450.38;;;6.99;100.00
77017;BME280;65949;53.132;17.930;2024-02-15T07:13:36;101448.95;;;6.99;100.00
77017;BME280;65949;53.132;17.930;2024-02-15T07:16:08;101452.20;;;7.00;100.00
77017;BME280;65949;53.132;17.930;2024-02-15T07:18:34;101453.34;;;7.02;100.00
77017;BME280;65949;53.132;17.930;2024-02-15T07:21:01;101449.75;;;7.03;100.00
77017;BME280;65949;53.132;17.930;2024-02-15T07:23:30;101449.85;;;7.06;100.00
77017;BME280;65949;53.132;17.930;2024-02-15T07:25:57;101445.96;;;7.09;100.00
77017;BME280;65949;53.132;17.930;2024-02-15T07:28:23;101444.46;;;7.13;100.00
77017;BME280;65949;53.132;17.930;2024-02-15T07:30:53;101445.56;;;7.16;100.00
77017;BME280;65949;53.132;17.930;2024-02-15T07:33:22;101442.93;;;7.21;100.00
77017;BME280;65949;53.132;17.930;2024-02-15T07:35:49;101441.98;;;7.27;100.00
77017;BME280;65949;53.132;17.930;2024-02-15T07:38:17;101441.98;;;7.32;100.00
77017;BME280;65949;53.132;17.930;2024-02-15T07:40:44;101446.52;;;7.35;100.00
77017;BME280;65949;53.132;17.930;2024-02-15T07:43:10;101449.11;;;7.38;100.00
77017;BME280;65949;53.132;17.930;2024-02-15T07:45:37;101448.66;;;7.40;100.00
77017;BME280;65949;53.132;17.930;2024-02-15T07:48:05;101447.59;;;7.42;100.00
77017;BME280;65949;53.132;17.930;2024-02-15T07:50:32;101448.04;;;7.47;100.00
77017;BME280;65949;53.132;17.930;2024-02-15T07:52:58;101449.23;;;7.53;100.00
77017;BME280;65949;53.132;17.930;2024-02-15T07:55:25;101448.77;;;7.59;100.00
77017;BME280;65949;53.132;17.930;2024-02-15T07:57:52;101451.62;;;7.63;100.00
77017;BME280;65949;53.132;17.930;2024-02-15T08:00:19;101448.76;;;7.66;100.00
77017;BME280;65949;53.132;17.930;2024-02-15T08:02:46;101456.16;;;7.67;100.00
77017;BME280;65949;53.132;17.930;2024-02-15T08:05:13;101454.72;;;7.69;100.00
77017;BME280;65949;53.132;17.930;2024-02-15T08:07:42;101453.01;;;7.73;100.00
77017;BME280;65949;53.132;17.930;2024-02-15T08:10:14;101454.38;;;7.79;100.00
77017;BME280;65949;53.132;17.930;2024-02-15T08:12:41;101451.37;;;7.84;100.00
77017;BME280;65949;53.132;17.930;2024-02-15T08:15:10;101453.61;;;7.88;100.00
77017;BME280;65949;53.132;17.930;2024-02-15T08:17:44;101453.82;;;7.88;100.00
77017;BME280;65949;53.132;17.930;2024-02-15T08:20:15;101451.15;;;7.87;100.00
77017;BME280;65949;53.132;17.930;2024-02-15T08:22:47;101453.10;;;7.88;100.00
77017;BME280;65949;53.132;17.930;2024-02-15T08:25:14;101453.33;;;7.89;100.00
77017;BME280;65949;53.132;17.930;2024-02-15T08:27:47;101457.13;;;7.91;100.00
77017;BME280;65949;53.132;17.930;2024-02-15T08:30:16;101458.80;;;7.93;100.00
77017;BME280;65949;53.132;17.930;2024-02-15T08:32:43;101461.02;;;7.94;100.00
77017;BME280;65949;53.132;17.930;2024-02-15T08:35:12;101461.98;;;7.97;100.00
77017;BME280;65949;53.132;17.930;2024-02-15T08:37:40;101461.58;;;7.99;100.00
77017;BME280;65949;53.132;17.930;2024-02-15T08:40:09;101461.17;;;8.01;100.00
77017;BME280;65949;53.132;17.930;2024-02-15T08:42:43;101457.31;;;8.02;100.00
77017;BME280;65949;53.132;17.930;2024-02-15T08:45:11;101461.14;;;8.02;100.00
77017;BME280;65949;53.132;17.930;2024-02-15T08:47:39;101466.98;;;8.01;100.00
77017;BME280;65949;53.132;17.930;2024-02-15T08:50:08;101467.52;;;7.98;100.00
77017;BME280;65949;53.132;17.930;2024-02-15T08:52:39;101469.30;;;7.97;100.00
77017;BME280;65949;53.132;17.930;2024-02-15T08:55:07;101470.55;;;7.99;100.00
77017;BME280;65949;53.132;17.930;2024-02-15T08:57:36;101464.67;;;8.00;100.00
77017;BME280;65949;53.132;17.930;2024-02-15T09:00:05;101464.80;;;8.03;100.00
77017;BME280;65949;53.132;17.930;2024-02-15T09:02:40;101466.77;;;8.06;100.00
77017;BME280;65949;53.132;17.930;2024-02-15T09:05:07;101464.65;;;8.10;100.00
77017;BME280;65949;53.132;17.930;2024-02-15T09:07:33;101463.91;;;8.15;100.00
77017;BME280;65949;53.132;17.930;2024-02-15T09:10:00;101460.24;;;8.20;100.00
77017;BME280;65949;53.132;17.930;2024-02-15T09:12:27;101463.44;;;8.28;100.00
77017;BME280;65949;53.132;17.930;2024-02-15T09:14:54;101466.77;;;8.37;100.00
77017;BME280;65949;53.132;17.930;2024-02-15T09:17:20;101470.23;;;8.48;100.00
77017;BME280;65949;53.132;17.930;2024-02-15T09:19:47;101472.36;;;8.55;100.00
77017;BME280;65949;53.132;17.930;2024-02-15T09:22:17;101471.64;;;8.61;100.00
77017;BME280;65949;53.132;17.930;2024-02-15T09:24:45;101471.79;;;8.68;100.00
77017;BME280;65949;53.132;17.930;2024-02-15T09:27:12;101466.63;;;8.74;100.00
77017;BME280;65949;53.132;17.930;2024-02-15T09:29:38;101463.82;;;8.81;100.00
77017;BME280;65949;53.132;17.930;2024-02-15T09:32:08;101461.11;;;8.89;100.00
77017;BME280;65949;53.132;17.930;2024-02-15T09:34:35;101457.61;;;8.97;100.00
77017;BME280;65949;53.132;17.930;2024-02-15T09:37:02;101463.95;;;9.04;100.00
77017;BME280;65949;53.132;17.930;2024-02-15T09:39:29;101460.13;;;9.16;100.00
77017;BME280;65949;53.132;17.930;2024-02-15T09:41:55;101459.05;;;9.28;100.00
77017;BME280;65949;53.132;17.930;2024-02-15T09:44:25;101459.71;;;9.37;100.00
77017;BME280;65949;53.132;17.930;2024-02-15T09:47:03;101458.89;;;9.48;100.00
77017;BME280;65949;53.132;17.930;2024-02-15T09:49:38;101461.33;;;9.54;100.00
77017;BME280;65949;53.132;17.930;2024-02-15T09:52:07;101460.08;;;9.57;100.00
77017;BME280;65949;53.132;17.930;2024-02-15T09:54:41;101464.48;;;9.64;100.00
77017;BME280;65949;53.132;17.930;2024-02-15T09:57:12;101463.05;;;9.70;100.00
77017;BME280;65949;53.132;17.930;2024-02-15T09:59:39;101464.22;;;9.74;100.00
77017;BME280;65949;53.132;17.930;2024-02-15T10:02:07;101468.99;;;9.81;100.00
77017;BME280;65949;53.132;17.930;2024-02-15T10:04:39;101471.63;;;9.84;100.00
77017;BME280;65949;53.132;17.930;2024-02-15T10:07:05;101472.86;;;9.86;100.00
77017;BME280;65949;53.132;17.930;2024-02-15T10:09:35;101473.61;;;9.84;100.00
77017;BME280;65949;53.132;17.930;2024-02-15T10:12:05;101473.66;;;9.79;100.00
77017;BME280;65949;53.132;17.930;2024-02-15T10:14:35;101476.20;;;9.72;100.00
77017;BME280;65949;53.132;17.930;2024-02-15T10:17:07;101472.69;;;9.64;100.00
77017;BME280;65949;53.132;17.930;2024-02-15T10:19:38;101474.50;;;9.55;100.00
77017;BME280;65949;53.132;17.930;2024-02-15T10:22:09;101471.90;;;9.48;100.00
77017;BME280;65949;53.132;17.930;2024-02-15T10:24:37;101470.58;;;9.43;100.00
77017;BME280;65949;53.132;17.930;2024-02-15T10:27:06;101468.35;;;9.42;100.00
77017;BME280;65949;53.132;17.930;2024-02-15T10:29:34;101462.33;;;9.42;100.00
77017;BME280;65949;53.132;17.930;2024-02-15T10:32:02;101462.89;;;9.44;100.00
77017;BME280;65949;53.132;17.930;2024-02-15T10:34:29;101461.79;;;9.48;100.00
77017;BME280;65949;53.132;17.930;2024-02-15T10:37:15;101457.17;;;9.58;100.00
77017;BME280;65949;53.132;17.930;2024-02-15T10:40:04;101456.08;;;9.73;100.00
77017;BME280;65949;53.132;17.930;2024-02-15T10:42:36;101451.32;;;9.84;100.00
77017;BME280;65949;53.132;17.930;2024-02-15T10:45:03;101448.71;;;9.91;100.00
77017;BME280;65949;53.132;17.930;2024-02-15T10:47:31;101449.31;;;9.94;100.00
77017;BME280;65949;53.132;17.930;2024-02-15T10:49:58;101446.09;;;9.95;100.00
77017;BME280;65949;53.132;17.930;2024-02-15T10:52:27;101445.99;;;9.97;100.00
77017;BME280;65949;53.132;17.930;2024-02-15T10:55:03;101443.33;;;10.02;100.00
77017;BME280;65949;53.132;17.930;2024-02-15T10:57:31;101447.70;;;10.02;100.00
77017;BME280;65949;53.132;17.930;2024-02-15T10:59:59;101446.23;;;10.03;100.00
77017;BME280;65949;53.132;17.930;2024-02-15T11:03:16;101445.05;;;10.06;100.00
77017;BME280;65949;53.132;17.930;2024-02-15T11:05:43;101442.52;;;10.06;100.00
77017;BME280;65949;53.132;17.930;2024-02-15T11:08:12;101437.98;;;10.06;100.00
77017;BME280;65949;53.132;17.930;2024-02-15T11:10:40;101437.44;;;10.04;100.00
77017;BME280;65949;53.132;17.930;2024-02-15T11:13:10;101432.77;;;10.03;100.00
77017;BME280;65949;53.132;17.930;2024-02-15T11:15:46;101430.63;;;10.02;100.00
77017;BME280;65949;53.132;17.930;2024-02-15T11:18:42;101432.29;;;10.02;100.00
77017;BME280;65949;53.132;17.930;2024-02-15T11:21:13;101430.73;;;10.04;100.00
77017;BME280;65949;53.132;17.930;2024-02-15T11:23:40;101431.27;;;10.07;100.00
77017;BME280;65949;53.132;17.930;2024-02-15T11:26:43;101427.32;;;10.10;100.00
77017;BME280;65949;53.132;17.930;2024-02-15T11:29:49;101426.38;;;10.18;100.00
77017;BME280;65949;53.132;17.930;2024-02-15T11:35:07;101430.98;;;10.31;100.00
77017;BME280;65949;53.132;17.930;2024-02-15T11:40:19;101426.52;;;10.39;99.98
77017;BME280;65949;53.132;17.930;2024-02-15T11:42:51;101420.81;;;10.44;100.00
77017;BME280;65949;53.132;17.930;2024-02-15T11:45:20;101420.80;;;10.52;99.93
77017;BME280;65949;53.132;17.930;2024-02-15T11:47:51;101418.39;;;10.54;99.90
77017;BME280;65949;53.132;17.930;2024-02-15T11:50:19;101420.14;;;10.52;99.83
77017;BME280;65949;53.132;17.930;2024-02-15T11:52:48;101425.92;;;10.50;99.94
77017;BME280;65949;53.132;17.930;2024-02-15T11:55:19;101420.85;;;10.43;99.38
77017;BME280;65949;53.132;17.930;2024-02-15T11:57:59;101425.42;;;10.37;99.43
77017;BME280;65949;53.132;17.930;2024-02-15T12:00:43;101425.46;;;10.34;99.51
77017;BME280;65949;53.132;17.930;2024-02-15T12:03:28;101423.05;;;10.30;99.25
77017;BME280;65949;53.132;17.930;2024-02-15T12:06:17;101425.02;;;10.28;99.71
77017;BME280;65949;53.132;17.930;2024-02-15T12:09:02;101427.03;;;10.24;99.53
77017;BME280;65949;53.132;17.930;2024-02-15T12:11:57;101428.33;;;10.21;99.35
77017;BME280;65949;53.132;17.930;2024-02-15T12:14:43;101429.86;;;10.19;99.52
77017;BME280;65949;53.132;17.930;2024-02-15T12:17:28;101425.66;;;10.18;99.58
77017;BME280;65949;53.132;17.930;2024-02-15T12:20:13;101423.08;;;10.19;99.50
77017;BME280;65949;53.132;17.930;2024-02-15T12:22:41;101422.80;;;10.23;99.54
77017;BME280;65949;53.132;17.930;2024-02-15T12:25:15;101423.00;;;10.28;99.39
77017;BME280;65949;53.132;17.930;2024-02-15T12:27:45;101421.55;;;10.33;99.22
77017;BME280;65949;53.132;17.930;2024-02-15T12:30:14;101418.47;;;10.36;99.15
77017;BME280;65949;53.132;17.930;2024-02-15T12:32:41;101418.42;;;10.34;98.96
77017;BME280;65949;53.132;17.930;2024-02-15T12:35:13;101415.48;;;10.32;99.13
77017;BME280;65949;53.132;17.930;2024-02-15T12:37:43;101414.55;;;10.28;98.98
77017;BME280;65949;53.132;17.930;2024-02-15T12:40:15;101417.51;;;10.27;99.10
77017;BME280;65949;53.132;17.930;2024-02-15T12:42:44;101416.98;;;10.26;99.06
77017;BME280;65949;53.132;17.930;2024-02-15T12:45:18;101414.01;;;10.24;99.02
77017;BME280;65949;53.132;17.930;2024-02-15T12:47:50;101414.48;;;10.24;99.00
77017;BME280;65949;53.132;17.930;2024-02-15T12:50:19;101413.92;;;10.27;99.12
77017;BME280;65949;53.132;17.930;2024-02-15T12:52:51;101415.67;;;10.29;98.90
77017;BME280;65949;53.132;17.930;2024-02-15T12:55:21;101419.34;;;10.29;99.08
77017;BME280;65949;53.132;17.930;2024-02-15T12:57:53;101416.84;;;10.30;99.18
77017;BME280;65949;53.132;17.930;2024-02-15T13:00:23;101415.53;;;10.29;99.09